createdAt,value
2023-02-28T00:01:30.334Z,63.83
2023-02-28T00:03:58.654Z,63.20
2023-02-28T00:06:27.073Z,56.63
2023-02-28T00:08:54.954Z,56.57
2023-02-28T00:11:23.606Z,58.93
2023-02-28T00:13:51.421Z,57.17
2023-02-28T00:16:23.984Z,47.63
2023-02-28T00:18:52.144Z,43.10
2023-02-28T00:21:21.348Z,40.23
2023-02-28T00:23:49.903Z,47.33
2023-02-28T00:26:19.166Z,48.07
2023-02-28T00:28:49.643Z,38.13
2023-02-28T00:31:18.099Z,42.90
2023-02-28T00:33:45.880Z,38.43
2023-02-28T00:36:16.337Z,41.73
2023-02-28T00:38:44.267Z,37.40
2023-02-28T00:41:12.838Z,39.30
2023-02-28T00:43:40.988Z,40.70
2023-02-28T00:46:09.363Z,42.13
2023-02-28T00:48:38.885Z,48.80
2023-02-28T00:51:08.701Z,44.33
2023-02-28T00:53:37.741Z,41.07
2023-02-28T00:56:06.019Z,41.17
2023-02-28T00:58:34.169Z,53.87
2023-02-28T01:01:02.711Z,42.73
2023-02-28T01:03:30.573Z,46.83
2023-02-28T01:06:00.244Z,46.17
2023-02-28T01:08:28.160Z,40.77
2023-02-28T01:10:56.178Z,44.97
2023-02-28T01:13:24.524Z,45.63
2023-02-28T01:15:55.833Z,45.07
2023-02-28T01:18:24.062Z,45.60
2023-02-28T01:20:53.447Z,43.90
2023-02-28T01:23:22.962Z,43.53
2023-02-28T01:25:51.814Z,47.53
2023-02-28T01:28:19.824Z,43.63
2023-02-28T01:30:52.012Z,44.90
2023-02-28T01:33:20.577Z,43.40
2023-02-28T01:35:48.812Z,46.47
2023-02-28T01:38:22.437Z,44.17
2023-02-28T01:40:50.976Z,44.63
2023-02-28T01:43:25.400Z,45.30
2023-02-28T01:45:55.612Z,48.63
2023-02-28T01:48:31.950Z,49.47
2023-02-28T01:51:06.790Z,47.83
2023-02-28T01:53:38.768Z,45.03
2023-02-28T01:56:10.112Z,46.83
2023-02-28T01:58:38.238Z,43.40
2023-02-28T02:01:06.292Z,48.27
2023-02-28T02:03:37.115Z,48.90
2023-02-28T02:06:05.236Z,46.57
2023-02-28T02:08:32.604Z,46.70
2023-02-28T02:11:02.438Z,45.87
2023-02-28T02:13:57.388Z,58.13
2023-02-28T02:16:54.989Z,52.37
2023-02-28T02:19:31.352Z,57.73
2023-02-28T02:21:59.339Z,59.23
2023-02-28T02:24:59.141Z,46.67
2023-02-28T02:27:39.617Z,58.57
2023-02-28T02:30:34.236Z,58.63
2023-02-28T02:33:20.138Z,58.03
2023-02-28T02:36:05.692Z,56.53
2023-02-28T02:38:42.616Z,57.30
2023-02-28T02:41:22.332Z,70.37
2023-02-28T02:44:06.029Z,68.13
2023-02-28T02:46:35.338Z,70.67
2023-02-28T02:49:08.636Z,57.80
2023-02-28T02:51:37.872Z,59.53
2023-02-28T02:54:18.519Z,54.63
2023-02-28T02:56:51.050Z,60.33
2023-02-28T02:59:23.002Z,63.43
2023-02-28T03:01:54.551Z,52.30
2023-02-28T03:04:24.607Z,62.00
2023-02-28T03:06:56.156Z,55.33
2023-02-28T03:09:25.667Z,60.53
2023-02-28T03:11:57.433Z,55.37
2023-02-28T03:14:49.426Z,61.50
2023-02-28T03:17:32.492Z,61.40
2023-02-28T03:20:33.020Z,65.40
2023-02-28T03:23:16.233Z,58.17
2023-02-28T03:25:57.948Z,59.33
2023-02-28T03:28:33.242Z,59.30
2023-02-28T03:31:16.419Z,60.83
2023-02-28T03:33:55.793Z,57.27
2023-02-28T03:36:45.059Z,58.37
2023-02-28T03:39:21.072Z,58.63
2023-02-28T03:42:21.056Z,63.20
2023-02-28T03:45:13.156Z,61.13
2023-02-28T03:47:50.609Z,62.27
2023-02-28T03:50:28.921Z,66.67
2023-02-28T03:53:05.891Z,56.43
2023-02-28T03:55:40.743Z,63.37
2023-02-28T03:58:23.756Z,60.67
2023-02-28T04:00:58.258Z,61.77
2023-02-28T04:03:26.125Z,59.43
2023-02-28T04:05:58.223Z,66.50
2023-02-28T04:08:26.031Z,56.90
2023-02-28T04:11:07.890Z,63.23
2023-02-28T04:13:35.607Z,65.33
2023-02-28T04:16:02.983Z,55.73
2023-02-28T04:18:30.672Z,58.23
2023-02-28T04:21:01.604Z,62.87
2023-02-28T04:23:29.318Z,61.57
2023-02-28T04:25:57.040Z,65.60
2023-02-28T04:28:24.985Z,65.43
2023-02-28T04:31:00.994Z,56.47
2023-02-28T04:33:29.206Z,68.70
2023-02-28T04:36:02.038Z,64.93
2023-02-28T04:38:31.720Z,60.77
2023-02-28T04:41:00.625Z,63.33
2023-02-28T04:43:29.439Z,71.10
2023-02-28T04:45:58.213Z,67.50
2023-02-28T04:48:28.432Z,61.13
2023-02-28T04:50:56.069Z,56.53
2023-02-28T04:53:23.705Z,64.93
2023-02-28T04:55:51.482Z,63.93
2023-02-28T04:58:19.204Z,66.53
2023-02-28T05:00:46.553Z,61.00
2023-02-28T05:03:14.279Z,72.20
2023-02-28T05:05:41.870Z,65.50
2023-02-28T05:08:10.970Z,65.00
2023-02-28T05:10:38.732Z,63.53
2023-02-28T05:13:06.454Z,70.80
2023-02-28T05:15:35.659Z,77.57
2023-02-28T05:18:03.531Z,72.33
2023-02-28T05:20:31.045Z,67.43
2023-02-28T05:23:00.479Z,70.30
2023-02-28T05:25:28.184Z,64.17
2023-02-28T05:27:55.752Z,68.40
2023-02-28T05:30:23.257Z,70.23
2023-02-28T05:32:53.803Z,67.27
2023-02-28T05:35:21.385Z,74.93
2023-02-28T05:37:49.267Z,74.07
2023-02-28T05:40:17.808Z,65.07
2023-02-28T05:42:45.604Z,63.27
2023-02-28T05:45:15.703Z,66.40
2023-02-28T05:47:43.668Z,63.53
2023-02-28T05:50:11.783Z,69.70
2023-02-28T05:52:39.473Z,70.97
2023-02-28T05:55:07.724Z,66.50
2023-02-28T05:57:35.609Z,64.80
2023-02-28T06:00:04.563Z,68.17
2023-02-28T06:02:42.202Z,68.37
2023-02-28T06:05:18.853Z,70.60
2023-02-28T06:07:46.878Z,69.57
2023-02-28T06:10:15.210Z,68.80
2023-02-28T06:12:43.631Z,76.47
2023-02-28T06:15:15.783Z,70.27
2023-02-28T06:17:44.926Z,76.40
2023-02-28T06:20:16.899Z,66.43
2023-02-28T06:22:45.497Z,72.23
2023-02-28T06:25:13.202Z,75.83
2023-02-28T06:27:40.943Z,74.73
2023-02-28T06:30:09.288Z,79.77
2023-02-28T06:32:37.364Z,66.33
2023-02-28T06:35:05.078Z,67.47
2023-02-28T06:37:33.887Z,72.23
2023-02-28T06:40:01.275Z,75.50
2023-02-28T06:42:29.964Z,65.97
2023-02-28T06:44:57.760Z,71.93
2023-02-28T06:47:25.272Z,74.43
2023-02-28T06:49:52.459Z,67.80
2023-02-28T06:52:20.349Z,65.47
2023-02-28T06:54:47.633Z,65.67
2023-02-28T06:57:15.168Z,67.40
2023-02-28T06:59:42.788Z,72.70
2023-02-28T07:02:10.237Z,76.83
2023-02-28T07:04:37.514Z,71.30
2023-02-28T07:07:05.010Z,80.03
2023-02-28T07:09:32.187Z,69.17
2023-02-28T07:12:02.737Z,78.60
2023-02-28T07:14:30.001Z,116.87
2023-02-28T07:16:57.469Z,199.20
2023-02-28T07:19:24.587Z,239.40
2023-02-28T07:21:52.069Z,253.00
2023-02-28T07:24:19.433Z,276.50
2023-02-28T07:26:47.287Z,266.83
2023-02-28T07:29:14.441Z,222.50
2023-02-28T07:31:41.862Z,177.07
2023-02-28T07:34:09.305Z,174.43
2023-02-28T07:36:36.960Z,171.53
2023-02-28T07:39:05.320Z,176.57
2023-02-28T07:41:35.082Z,191.70
2023-02-28T07:44:02.642Z,170.13
2023-02-28T07:46:36.409Z,145.90
2023-02-28T07:49:04.259Z,128.93
2023-02-28T07:51:31.994Z,130.27
2023-02-28T07:53:59.363Z,128.33
2023-02-28T07:56:27.116Z,119.67
2023-02-28T07:58:55.067Z,119.07
2023-02-28T08:01:22.898Z,125.67
2023-02-28T08:03:50.368Z,133.13
2023-02-28T08:06:21.107Z,128.13
2023-02-28T08:08:48.430Z,115.27
2023-02-28T08:11:18.159Z,106.23
2023-02-28T08:13:46.597Z,115.67
2023-02-28T08:16:23.215Z,107.13
2023-02-28T08:18:52.712Z,93.27
2023-02-28T08:21:20.792Z,101.03
2023-02-28T08:23:49.957Z,94.07
2023-02-28T08:26:21.008Z,84.37
2023-02-28T08:28:48.794Z,92.30
2023-02-28T08:31:17.722Z,86.77
2023-02-28T08:33:45.735Z,82.90
2023-02-28T08:36:13.571Z,81.20
2023-02-28T08:38:41.159Z,75.10
2023-02-28T08:41:10.866Z,84.13
2023-02-28T08:43:39.381Z,73.10
2023-02-28T08:46:07.601Z,75.83
2023-02-28T08:48:38.928Z,78.77
2023-02-28T08:51:08.876Z,86.80
2023-02-28T08:53:40.814Z,82.83
2023-02-28T08:56:13.973Z,73.10
2023-02-28T08:58:41.676Z,67.93
2023-02-28T09:01:14.721Z,64.40
2023-02-28T09:03:43.286Z,57.92
2023-02-28T09:06:12.612Z,62.17
2023-02-28T09:08:41.128Z,48.38
2023-02-28T09:11:10.078Z,52.50
2023-02-28T09:13:38.175Z,52.35
2023-02-28T09:16:08.066Z,48.13
2023-02-28T09:18:38.574Z,26.58
2023-02-28T09:21:07.611Z,23.63
2023-02-28T09:23:35.747Z,20.83
2023-02-28T09:26:03.046Z,25.52
2023-02-28T09:28:30.793Z,23.92
2023-02-28T09:30:59.949Z,22.00
2023-02-28T09:33:27.747Z,22.08
2023-02-28T09:36:01.873Z,23.45
2023-02-28T09:38:30.096Z,20.73
2023-02-28T09:41:01.567Z,24.90
2023-02-28T09:43:38.798Z,20.30
2023-02-28T09:46:18.093Z,21.48
2023-02-28T09:48:48.074Z,26.17
2023-02-28T09:51:37.130Z,20.65
2023-02-28T10:07:51.155Z,11.18
2023-02-28T10:10:45.056Z,9.85
2023-02-28T10:13:35.769Z,10.38
2023-02-28T10:16:15.786Z,13.45
2023-02-28T10:18:58.655Z,12.25
2023-02-28T10:21:44.531Z,8.07
2023-02-28T10:24:18.310Z,10.93
2023-02-28T10:26:47.217Z,13.20
2023-02-28T10:29:15.261Z,14.10
2023-02-28T10:31:43.626Z,16.95
2023-02-28T10:34:14.344Z,17.83
2023-02-28T10:36:44.901Z,16.00
2023-02-28T10:39:47.659Z,16.40
2023-02-28T10:42:29.945Z,14.85
2023-02-28T10:45:17.196Z,15.75
2023-02-28T10:48:01.946Z,16.13
2023-02-28T10:50:32.558Z,16.88
2023-02-28T10:53:36.157Z,25.17
2023-02-28T10:56:18.250Z,20.48
2023-02-28T10:58:54.789Z,17.88
2023-02-28T11:01:26.193Z,12.13
2023-02-28T11:03:54.293Z,11.52
2023-02-28T11:06:22.233Z,11.57
2023-02-28T11:09:00.352Z,13.43
2023-02-28T11:11:32.744Z,15.80
2023-02-28T11:14:17.428Z,12.02
2023-02-28T11:16:45.914Z,12.75
2023-02-28T11:19:27.549Z,9.77
2023-02-28T11:22:02.887Z,15.57
2023-02-28T11:24:33.653Z,12.38
2023-02-28T11:27:01.239Z,12.93
2023-02-28T11:29:34.441Z,13.57
2023-02-28T11:32:06.952Z,13.30
2023-02-28T11:34:35.145Z,13.30
2023-02-28T11:37:06.532Z,11.38
2023-02-28T11:39:34.867Z,16.08
2023-02-28T11:42:08.271Z,9.80
2023-02-28T11:44:59.605Z,12.10
2023-02-28T11:47:58.744Z,15.15
2023-02-28T11:50:50.963Z,13.18
2023-02-28T11:53:33.410Z,14.90
2023-02-28T11:56:12.542Z,11.23
2023-02-28T11:58:40.862Z,16.80
2023-02-28T12:01:25.686Z,12.00
2023-02-28T12:04:31.436Z,12.25
2023-02-28T12:07:10.612Z,11.93
2023-02-28T12:09:45.264Z,15.05
2023-02-28T12:12:35.914Z,12.57
2023-02-28T12:15:09.542Z,11.90
2023-02-28T12:17:56.774Z,11.15
2023-02-28T12:20:38.249Z,11.73
2023-02-28T12:23:27.360Z,9.35
2023-02-28T12:26:13.219Z,11.07
2023-02-28T12:28:49.088Z,12.45
2023-02-28T12:31:29.178Z,11.02
2023-02-28T12:34:26.445Z,16.38
2023-02-28T12:36:57.074Z,14.32
2023-02-28T12:39:36.518Z,17.33
2023-02-28T12:42:15.509Z,14.07
2023-02-28T12:44:50.773Z,10.00
2023-02-28T12:47:19.916Z,11.77
2023-02-28T12:49:53.386Z,15.23
2023-02-28T12:52:45.953Z,10.90
2023-02-28T12:55:21.590Z,9.63
2023-02-28T12:57:48.971Z,13.32
2023-02-28T13:00:24.147Z,11.45
2023-02-28T13:03:16.907Z,11.82
2023-02-28T13:05:59.647Z,11.50
2023-02-28T13:08:54.561Z,12.00
2023-02-28T13:11:39.483Z,16.70
2023-02-28T13:14:26.181Z,14.48
2023-02-28T13:17:13.585Z,13.73
2023-02-28T13:19:56.226Z,12.18
2023-02-28T13:22:27.658Z,12.05
2023-02-28T13:24:57.477Z,13.52
2023-02-28T13:27:42.012Z,11.05
2023-02-28T13:30:46.985Z,10.27
2023-02-28T13:33:33.166Z,14.48
2023-02-28T13:36:20.739Z,14.10
2023-02-28T13:38:49.126Z,10.70
2023-02-28T13:41:35.794Z,12.48
2023-02-28T13:44:16.723Z,11.00
2023-02-28T13:46:50.517Z,22.00
2023-02-28T13:49:33.176Z,21.30
2023-02-28T13:52:10.336Z,21.00
2023-02-28T13:55:06.338Z,14.70
2023-02-28T13:57:52.633Z,14.10
2023-02-28T14:00:36.746Z,15.32
2023-02-28T14:03:30.215Z,15.15
2023-02-28T14:06:20.738Z,11.57
2023-02-28T14:09:05.541Z,15.80
2023-02-28T14:11:40.149Z,16.13
2023-02-28T14:14:10.082Z,12.23
2023-02-28T14:16:52.202Z,18.65
2023-02-28T14:19:28.149Z,13.15
2023-02-28T14:22:24.390Z,22.75
2023-02-28T14:25:11.996Z,23.27
2023-02-28T14:28:17.075Z,19.40
2023-02-28T14:31:01.388Z,20.80
2023-02-28T14:33:35.108Z,27.20
2023-02-28T14:36:02.773Z,20.05
2023-02-28T14:38:44.031Z,17.15
2023-02-28T14:41:22.706Z,17.27
2023-02-28T14:43:57.110Z,15.57
2023-02-28T14:46:29.029Z,16.40
2023-02-28T14:48:58.258Z,17.63
2023-02-28T14:51:26.904Z,21.25
2023-02-28T14:54:00.260Z,23.48
2023-02-28T14:56:39.717Z,52.85
2023-02-28T14:59:26.727Z,24.90
2023-02-28T15:02:17.515Z,30.52
2023-02-28T15:05:01.470Z,19.67
2023-02-28T15:07:30.516Z,22.30
2023-02-28T15:10:13.658Z,32.72
2023-02-28T15:12:42.698Z,40.17
2023-02-28T15:15:18.673Z,63.90
2023-02-28T15:17:53.782Z,50.43
2023-02-28T15:20:22.788Z,46.87
2023-02-28T15:22:54.164Z,58.87
2023-02-28T15:25:23.600Z,46.90
2023-02-28T15:27:55.991Z,43.23
2023-02-28T15:30:32.491Z,41.80
2023-02-28T15:33:26.142Z,42.73
2023-02-28T15:36:17.104Z,61.37
2023-02-28T15:38:45.392Z,53.00
2023-02-28T15:41:25.920Z,68.47
2023-02-28T15:44:18.652Z,61.80
2023-02-28T15:47:02.720Z,69.37
2023-02-28T15:49:54.369Z,61.53
2023-02-28T15:52:43.676Z,45.33
2023-02-28T15:55:23.993Z,41.13
2023-02-28T15:58:01.155Z,46.00
2023-02-28T16:00:35.266Z,52.80
2023-02-28T16:03:27.590Z,60.83
2023-02-28T16:06:17.629Z,70.83
2023-02-28T16:08:46.769Z,82.10
2023-02-28T16:11:14.790Z,86.00
2023-02-28T16:13:42.949Z,85.43
2023-02-28T16:16:20.908Z,90.50
2023-02-28T16:18:49.425Z,109.87
2023-02-28T16:21:17.437Z,119.20
2023-02-28T16:23:45.966Z,149.37
2023-02-28T16:26:28.699Z,93.80
2023-02-28T16:28:57.574Z,107.07
2023-02-28T16:31:25.991Z,145.80
2023-02-28T16:33:57.992Z,92.47
2023-02-28T16:36:26.726Z,77.73
2023-02-28T16:38:56.422Z,70.70
2023-02-28T16:41:27.363Z,208.33
2023-02-28T16:44:01.374Z,170.60
2023-02-28T16:46:34.575Z,115.17
2023-02-28T16:49:02.876Z,203.47
2023-02-28T16:51:33.392Z,107.87
2023-02-28T16:54:03.128Z,85.80
2023-02-28T16:56:31.448Z,73.43
2023-02-28T16:59:02.707Z,75.10
2023-02-28T17:01:31.184Z,56.83
2023-02-28T17:03:59.883Z,26.23
2023-02-28T17:06:30.429Z,20.90
2023-02-28T17:09:00.793Z,21.53
2023-02-28T17:11:29.018Z,32.53
2023-02-28T17:13:57.916Z,29.93
2023-02-28T17:16:34.784Z,21.70
2023-02-28T17:19:06.099Z,36.10
2023-02-28T17:21:35.959Z,37.83
2023-02-28T17:24:04.523Z,36.70
2023-02-28T17:26:33.213Z,29.80
2023-02-28T17:29:02.104Z,29.20
2023-02-28T17:31:32.367Z,24.37
2023-02-28T17:34:01.444Z,22.67
2023-02-28T17:36:30.088Z,20.80
2023-02-28T17:38:59.762Z,22.00
2023-02-28T17:41:28.422Z,22.20
2023-02-28T17:43:57.485Z,19.57
2023-02-28T17:46:26.144Z,17.37
2023-02-28T17:48:55.619Z,17.83
2023-02-28T17:51:25.805Z,17.90
2023-02-28T17:53:54.284Z,21.27
2023-02-28T17:56:25.129Z,23.37
2023-02-28T17:58:55.953Z,20.17
2023-02-28T18:01:26.707Z,14.33
2023-02-28T18:03:57.008Z,15.93
2023-02-28T18:06:28.884Z,11.63
2023-02-28T18:08:57.292Z,16.00
2023-02-28T18:11:25.750Z,13.10
2023-02-28T18:13:56.941Z,18.53
2023-02-28T18:16:24.692Z,14.60
2023-02-28T18:18:54.067Z,15.67
2023-02-28T18:21:23.674Z,14.13
2023-02-28T18:23:54.382Z,17.67
2023-02-28T18:26:23.164Z,43.80
2023-02-28T18:28:51.572Z,33.57
2023-02-28T18:31:21.078Z,29.73
2023-02-28T18:33:51.243Z,50.63
2023-02-28T18:36:23.043Z,51.33
2023-02-28T18:38:52.315Z,42.27
2023-02-28T18:41:22.351Z,45.07
2023-02-28T18:43:52.235Z,65.03
2023-02-28T18:46:21.453Z,50.27
2023-02-28T18:48:49.706Z,54.97
2023-02-28T18:51:21.001Z,48.93
2023-02-28T18:53:49.696Z,49.23
2023-02-28T18:56:19.853Z,31.27
2023-02-28T18:58:48.206Z,25.10
2023-02-28T19:01:19.397Z,40.30
2023-02-28T19:03:48.216Z,54.40
2023-02-28T19:06:16.974Z,57.67
2023-02-28T19:08:45.431Z,47.10
2023-02-28T19:11:17.080Z,35.13
2023-02-28T19:13:46.711Z,26.60
2023-02-28T19:16:19.731Z,28.57
2023-02-28T19:18:48.293Z,28.13
2023-02-28T19:21:17.526Z,28.47
2023-02-28T19:23:45.937Z,34.90
2023-02-28T19:26:21.744Z,38.17
2023-02-28T19:28:51.423Z,36.67
2023-02-28T19:31:24.260Z,38.63
2023-02-28T19:33:53.240Z,37.10
2023-02-28T19:36:22.276Z,34.67
2023-02-28T19:38:51.319Z,34.10
2023-02-28T19:41:20.215Z,28.60
2023-02-28T19:43:49.294Z,28.47
2023-02-28T19:46:19.147Z,40.40
2023-02-28T19:48:49.134Z,42.47
2023-02-28T19:53:47.494Z,52.00
2023-02-28T19:56:16.386Z,36.63
2023-02-28T19:58:45.438Z,32.13
2023-02-28T20:01:16.674Z,33.80
2023-02-28T20:03:51.993Z,29.90
2023-02-28T20:06:20.587Z,20.40
2023-02-28T20:08:54.932Z,25.13
2023-02-28T20:11:22.915Z,16.50
2023-02-28T20:13:54.065Z,21.57
2023-02-28T20:16:21.744Z,21.80
2023-02-28T20:18:51.685Z,26.17
2023-02-28T20:21:20.642Z,23.40
2023-02-28T20:23:49.254Z,27.27
2023-02-28T20:26:20.433Z,27.73
2023-02-28T20:28:49.011Z,35.33
2023-02-28T20:31:19.880Z,33.73
2023-02-28T20:33:50.778Z,37.23
2023-02-28T20:36:24.582Z,32.17
2023-02-28T20:38:53.349Z,29.77
2023-02-28T20:41:21.714Z,29.57
2023-02-28T20:43:58.425Z,23.63
2023-02-28T20:46:27.371Z,21.13
2023-02-28T20:48:56.269Z,21.17
2023-02-28T20:51:25.972Z,29.60
2023-02-28T20:53:54.752Z,22.27
2023-02-28T20:56:26.111Z,27.87
2023-02-28T20:58:58.259Z,26.33
2023-02-28T21:01:27.560Z,24.27
2023-02-28T21:04:00.658Z,22.17
2023-02-28T21:06:31.442Z,26.23
2023-02-28T21:08:59.808Z,22.77
2023-02-28T21:11:32.828Z,24.13
2023-02-28T21:14:06.480Z,28.30
2023-02-28T21:16:37.604Z,29.23
2023-02-28T21:19:07.196Z,34.73
2023-02-28T21:21:43.983Z,35.50
2023-02-28T21:24:13.108Z,26.53
2023-02-28T21:26:43.046Z,31.37
2023-02-28T21:29:12.892Z,38.57
2023-02-28T21:31:41.647Z,33.63
2023-02-28T21:34:11.767Z,32.03
2023-02-28T21:36:43.364Z,28.80
2023-02-28T21:39:16.171Z,34.60
2023-02-28T21:41:44.157Z,28.37
2023-02-28T21:44:19.678Z,31.40
2023-02-28T21:46:49.798Z,33.67
2023-02-28T21:49:18.114Z,29.67
2023-02-28T21:51:45.978Z,28.17
2023-02-28T21:54:14.389Z,25.57
2023-02-28T21:56:42.797Z,34.30
2023-02-28T21:59:10.901Z,31.53
2023-02-28T22:01:41.416Z,29.57
2023-02-28T22:04:11.585Z,28.57
2023-02-28T22:06:41.500Z,33.53
2023-02-28T22:09:10.853Z,33.83
2023-02-28T22:11:39.514Z,37.57
2023-02-28T22:14:12.317Z,35.10
2023-02-28T22:16:56.176Z,37.03
2023-02-28T22:19:25.033Z,37.43
2023-02-28T22:21:54.296Z,41.93
2023-02-28T22:24:24.854Z,47.60
2023-02-28T22:26:54.454Z,69.07
2023-02-28T22:29:23.511Z,70.70
2023-02-28T22:31:51.767Z,75.17
2023-02-28T22:34:20.901Z,72.73
2023-02-28T22:36:49.446Z,73.37
2023-02-28T22:39:17.660Z,102.47
2023-02-28T22:41:45.954Z,89.90
2023-02-28T22:44:14.191Z,74.00
2023-02-28T22:46:42.147Z,81.07
2023-02-28T22:49:10.411Z,87.90
2023-02-28T22:51:38.428Z,96.90
2023-02-28T22:54:06.806Z,98.67
2023-02-28T22:56:34.869Z,84.80
2023-02-28T22:59:03.181Z,77.67
2023-02-28T23:01:33.654Z,62.13
2023-02-28T23:04:03.517Z,65.33
2023-02-28T23:06:35.028Z,63.33
2023-02-28T23:09:06.930Z,62.17
2023-02-28T23:11:38.671Z,47.67
2023-02-28T23:14:07.285Z,49.37
2023-02-28T23:16:39.254Z,52.67
2023-02-28T23:19:10.222Z,50.43
2023-02-28T23:21:38.836Z,54.43
2023-02-28T23:24:12.025Z,55.87
2023-02-28T23:26:42.087Z,47.60
2023-02-28T23:29:10.565Z,51.53
2023-02-28T23:31:38.779Z,43.27
2023-02-28T23:34:07.656Z,45.77
2023-02-28T23:36:36.001Z,48.87
2023-02-28T23:39:04.426Z,51.60
2023-02-28T23:41:34.826Z,53.97
2023-02-28T23:44:02.994Z,53.97
2023-02-28T23:46:31.309Z,58.37
2023-02-28T23:49:00.262Z,58.73
2023-02-28T23:51:28.068Z,68.03
2023-02-28T23:53:56.077Z,61.77
2023-02-28T23:56:25.471Z,77.40
2023-02-28T23:58:55.564Z,83.13
